createdAt,value
2022-11-19T00:00:17.243Z,73.50
2022-11-19T00:02:47.537Z,72.70
2022-11-19T00:05:18.054Z,73.50
2022-11-19T00:07:48.657Z,74.50
2022-11-19T00:10:19.357Z,74.80
2022-11-19T00:12:58.800Z,71.50
2022-11-19T00:15:32.347Z,72.40
2022-11-19T00:18:02.684Z,72.90
2022-11-19T00:20:34.220Z,73.20
2022-11-19T00:23:05.177Z,73.80
2022-11-19T00:25:37.640Z,71.50
2022-11-19T00:28:08.507Z,73.20
2022-11-19T00:30:48.048Z,72.20
2022-11-19T00:33:19.018Z,71.40
2022-11-19T00:35:49.228Z,70.70
2022-11-19T00:38:23.741Z,70.70
2022-11-19T00:40:54.034Z,72.60
2022-11-19T00:43:42.172Z,72.50
2022-11-19T00:46:12.974Z,70.80
2022-11-19T00:48:43.361Z,70.60
2022-11-19T00:51:14.789Z,69.60
2022-11-19T00:53:45.045Z,68.80
2022-11-19T00:56:21.104Z,68.80
2022-11-19T00:58:51.947Z,69.80
2022-11-19T01:01:24.918Z,69.60
2022-11-19T01:03:56.156Z,67.30
2022-11-19T01:06:28.276Z,67.20
2022-11-19T01:08:58.949Z,68.70
2022-11-19T01:11:35.083Z,68.70
2022-11-19T01:14:07.334Z,68.70
2022-11-19T01:16:43.007Z,68.80
2022-11-19T01:19:18.211Z,69.40
2022-11-19T01:21:48.689Z,71.10
2022-11-19T01:24:18.991Z,70.60
2022-11-19T01:26:49.360Z,68.80
2022-11-19T01:29:20.011Z,68.70
2022-11-19T01:31:50.413Z,69.50
2022-11-19T01:34:20.649Z,67.70
2022-11-19T01:36:50.978Z,68.20
2022-11-19T01:39:21.528Z,68.80
2022-11-19T01:41:52.357Z,69.70
2022-11-19T01:44:56.133Z,67.90
2022-11-19T01:47:26.556Z,67.00
2022-11-19T01:49:56.999Z,69.00
2022-11-19T01:52:27.829Z,67.50
2022-11-19T01:54:58.815Z,68.30
2022-11-19T01:57:29.284Z,66.00
2022-11-19T01:59:59.587Z,67.30
2022-11-19T02:02:29.853Z,67.20
2022-11-19T02:05:00.662Z,65.90
2022-11-19T02:07:34.618Z,64.30
2022-11-19T02:10:07.719Z,64.90
2022-11-19T02:13:04.885Z,65.00
2022-11-19T02:15:59.123Z,64.10
2022-11-19T02:19:15.012Z,63.40
2022-11-19T02:22:08.310Z,62.20
2022-11-19T02:25:04.985Z,64.30
2022-11-19T02:27:59.241Z,62.10
2022-11-19T02:30:40.613Z,64.20
2022-11-19T02:33:19.163Z,63.50
2022-11-19T02:36:05.554Z,63.70
2022-11-19T02:38:50.063Z,63.00
2022-11-19T02:41:41.177Z,64.10
2022-11-19T02:44:53.660Z,64.60
2022-11-19T02:47:36.709Z,64.30
2022-11-19T02:50:16.067Z,62.60
2022-11-19T02:52:47.615Z,62.10
2022-11-19T02:55:22.231Z,63.20
2022-11-19T02:57:59.191Z,62.60
2022-11-19T03:00:49.100Z,63.50
2022-11-19T03:03:40.345Z,64.20
2022-11-19T03:06:17.097Z,64.80
2022-11-19T03:08:49.416Z,65.50
2022-11-19T03:11:25.683Z,65.30
2022-11-19T03:14:15.359Z,66.50
2022-11-19T03:17:03.533Z,65.60
2022-11-19T03:19:34.356Z,67.50
2022-11-19T03:22:12.092Z,68.70
2022-11-19T03:24:53.345Z,67.30
2022-11-19T03:27:46.938Z,66.80
2022-11-19T03:30:19.837Z,67.90
2022-11-19T03:33:19.563Z,70.30
2022-11-19T03:36:02.983Z,70.10
2022-11-19T03:38:44.544Z,68.80
2022-11-19T03:41:17.715Z,69.20
2022-11-19T03:43:53.254Z,69.70
2022-11-19T03:46:25.457Z,70.20
2022-11-19T03:48:57.378Z,70.30
2022-11-19T03:51:51.071Z,67.90
2022-11-19T03:54:21.940Z,69.00
2022-11-19T03:56:52.837Z,69.70
2022-11-19T03:59:28.146Z,70.60
2022-11-19T04:02:07.117Z,72.00
2022-11-19T04:04:40.871Z,72.30
2022-11-19T04:07:16.745Z,71.10
2022-11-19T04:09:47.234Z,71.60
2022-11-19T04:12:28.045Z,71.30
2022-11-19T04:14:58.287Z,70.10
2022-11-19T04:17:28.754Z,70.80
2022-11-19T04:19:59.071Z,69.70
2022-11-19T04:22:29.706Z,70.40
2022-11-19T04:24:59.904Z,69.90
2022-11-19T04:27:30.149Z,69.70
2022-11-19T04:30:00.923Z,70.80
2022-11-19T04:32:31.651Z,70.50
2022-11-19T04:35:02.056Z,68.90
2022-11-19T04:37:32.893Z,69.10
2022-11-19T04:40:03.116Z,69.40
2022-11-19T04:42:34.306Z,67.80
2022-11-19T04:45:04.527Z,68.30
2022-11-19T04:47:34.800Z,68.50
2022-11-19T04:50:05.201Z,68.00
2022-11-19T04:52:40.553Z,69.20
2022-11-19T04:55:12.586Z,68.10
2022-11-19T04:57:42.983Z,68.10
2022-11-19T05:00:13.842Z,68.40
2022-11-19T05:02:44.279Z,67.50
2022-11-19T05:05:14.766Z,68.10
2022-11-19T05:07:45.083Z,68.90
2022-11-19T05:10:15.375Z,67.30
2022-11-19T05:12:45.770Z,68.80
2022-11-19T05:15:16.092Z,68.10
2022-11-19T05:17:47.817Z,68.40
2022-11-19T05:20:18.654Z,67.70
2022-11-19T05:22:49.142Z,68.70
2022-11-19T05:25:19.463Z,68.70
2022-11-19T05:27:50.177Z,68.70
2022-11-19T05:30:20.405Z,69.00
2022-11-19T05:32:50.951Z,67.80
2022-11-19T05:35:22.030Z,68.80
2022-11-19T05:37:53.684Z,69.50
2022-11-19T05:40:24.293Z,70.40
2022-11-19T05:42:55.389Z,71.10
2022-11-19T05:45:26.052Z,70.90
2022-11-19T05:48:00.812Z,70.60
2022-11-19T05:50:31.357Z,71.80
2022-11-19T05:53:02.731Z,72.10
2022-11-19T05:55:33.611Z,71.90
2022-11-19T05:58:05.981Z,71.40
2022-11-19T06:00:36.966Z,74.30
2022-11-19T06:03:07.664Z,73.50
2022-11-19T06:05:40.551Z,73.30
2022-11-19T06:08:11.546Z,73.80
2022-11-19T06:10:42.269Z,74.10
2022-11-19T06:13:12.921Z,73.00
2022-11-19T06:15:43.211Z,73.10
2022-11-19T06:18:13.430Z,73.20
2022-11-19T06:20:44.061Z,73.20
2022-11-19T06:23:14.720Z,74.10
2022-11-19T06:25:45.357Z,75.40
2022-11-19T06:28:17.164Z,75.10
2022-11-19T06:30:47.844Z,74.30
2022-11-19T06:33:18.658Z,76.40
2022-11-19T06:35:53.079Z,77.30
2022-11-19T06:38:36.294Z,77.40
2022-11-19T06:41:06.613Z,77.80
2022-11-19T06:43:36.896Z,77.20
2022-11-19T06:46:07.224Z,75.40
2022-11-19T06:48:38.254Z,76.80
2022-11-19T06:51:09.014Z,76.40
2022-11-19T06:53:39.396Z,76.60
2022-11-19T06:56:10.521Z,76.30
2022-11-19T06:58:41.384Z,77.60
2022-11-19T07:01:12.030Z,80.50
2022-11-19T07:03:42.488Z,82.20
2022-11-19T07:06:12.941Z,82.70
2022-11-19T07:08:43.380Z,84.70
2022-11-19T07:11:28.816Z,85.70
2022-11-19T07:14:00.643Z,86.10
2022-11-19T07:16:35.137Z,88.00
2022-11-19T07:19:08.822Z,89.40
2022-11-19T07:21:39.594Z,90.00
2022-11-19T07:24:12.160Z,90.70
2022-11-19T07:26:42.378Z,91.00
2022-11-19T07:29:15.952Z,91.50
2022-11-19T07:31:48.583Z,92.00
2022-11-19T07:34:19.724Z,92.00
2022-11-19T07:36:51.753Z,92.30
2022-11-19T07:39:22.342Z,92.60
2022-11-19T07:42:10.850Z,92.80
2022-11-19T07:44:41.899Z,93.20
2022-11-19T07:47:12.307Z,93.40
2022-11-19T07:49:42.523Z,93.10
2022-11-19T07:52:13.169Z,93.60
2022-11-19T07:54:44.397Z,94.10
2022-11-19T07:57:15.049Z,94.50
2022-11-19T07:59:45.364Z,94.50
2022-11-19T08:02:16.963Z,94.60
2022-11-19T08:04:47.268Z,94.40
2022-11-19T08:07:17.679Z,94.70
2022-11-19T08:09:48.028Z,94.80
2022-11-19T08:12:18.360Z,95.00
2022-11-19T08:14:48.753Z,95.00
2022-11-19T08:17:38.096Z,94.90
2022-11-19T08:20:10.056Z,95.00
2022-11-19T08:22:42.372Z,95.20
2022-11-19T08:25:13.213Z,95.20
2022-11-19T08:27:43.729Z,95.20
2022-11-19T08:30:15.493Z,95.00
2022-11-19T08:32:46.010Z,94.90
2022-11-19T08:35:16.973Z,95.10
2022-11-19T08:37:49.323Z,95.00
2022-11-19T08:40:21.424Z,95.20
2022-11-19T08:43:04.696Z,95.50
2022-11-19T08:45:41.949Z,95.60
2022-11-19T08:48:12.670Z,95.30
2022-11-19T08:50:45.272Z,95.30
2022-11-19T08:53:16.298Z,95.50
2022-11-19T08:55:53.991Z,95.50
2022-11-19T08:58:26.573Z,95.60
2022-11-19T09:00:57.881Z,95.80
2022-11-19T09:03:28.695Z,95.70
2022-11-19T09:06:03.677Z,96.00
2022-11-19T09:08:35.224Z,96.00
2022-11-19T09:11:17.722Z,96.00
2022-11-19T09:13:48.522Z,96.20
2022-11-19T09:16:20.844Z,96.10
2022-11-19T09:18:51.446Z,95.90
2022-11-19T09:21:22.485Z,95.70
2022-11-19T09:23:53.232Z,95.60
2022-11-19T09:26:23.972Z,95.70
2022-11-19T09:28:54.767Z,95.80
2022-11-19T09:31:27.413Z,95.60
2022-11-19T09:33:58.954Z,95.60
2022-11-19T09:36:29.639Z,95.70
2022-11-19T09:39:01.048Z,95.90
2022-11-19T09:41:58.969Z,95.90
2022-11-19T09:44:30.553Z,95.90
2022-11-19T09:47:23.452Z,95.80
2022-11-19T09:50:12.403Z,95.80
2022-11-19T09:53:02.147Z,95.80
2022-11-19T09:55:38.264Z,95.70
2022-11-19T09:58:18.285Z,95.40
2022-11-19T10:00:49.123Z,95.60
2022-11-19T10:03:27.405Z,95.90
2022-11-19T10:06:18.875Z,95.90
2022-11-19T10:09:14.360Z,95.80
2022-11-19T10:11:57.145Z,95.80
2022-11-19T10:14:37.017Z,95.80
2022-11-19T10:17:31.073Z,95.90
2022-11-19T10:20:19.520Z,96.00
2022-11-19T10:23:00.423Z,96.00
2022-11-19T10:25:46.217Z,96.20
2022-11-19T10:28:25.817Z,96.50
2022-11-19T10:31:06.032Z,96.30
2022-11-19T10:33:50.101Z,96.50
2022-11-19T10:36:34.313Z,96.60
2022-11-19T10:39:27.057Z,96.90
2022-11-19T10:42:12.239Z,96.70
2022-11-19T10:45:06.124Z,96.70
2022-11-19T10:48:08.679Z,96.90
2022-11-19T10:50:40.478Z,96.80
2022-11-19T10:53:30.133Z,97.00
2022-11-19T10:56:24.110Z,97.20
2022-11-19T10:59:03.379Z,97.50
2022-11-19T11:01:34.960Z,97.40
2022-11-19T11:04:18.040Z,97.50
2022-11-19T11:07:01.434Z,98.00
2022-11-19T11:09:38.664Z,98.10
2022-11-19T11:12:37.048Z,98.20
2022-11-19T11:15:19.878Z,98.30
2022-11-19T11:18:03.100Z,98.50
2022-11-19T11:20:34.706Z,98.50
2022-11-19T11:23:20.954Z,98.50
2022-11-19T11:26:07.037Z,98.60
2022-11-19T11:28:38.797Z,98.60
2022-11-19T11:31:13.527Z,98.50
2022-11-19T11:33:56.671Z,98.50
2022-11-19T11:36:33.285Z,98.40
2022-11-19T11:39:06.037Z,98.50
2022-11-19T11:44:40.668Z,98.60
2022-11-19T11:47:34.121Z,98.50
2022-11-19T11:50:14.692Z,98.50
2022-11-19T11:52:55.897Z,98.70
2022-11-19T11:55:29.520Z,98.60
2022-11-19T11:58:08.808Z,98.50
2022-11-19T12:00:45.324Z,98.50
2022-11-19T12:03:23.821Z,98.70
2022-11-19T12:05:57.491Z,98.80
2022-11-19T12:08:46.328Z,98.80
2022-11-19T12:11:56.149Z,98.70
2022-11-19T12:14:41.795Z,98.80
2022-11-19T12:17:33.826Z,98.80
2022-11-19T12:20:42.513Z,99.00
2022-11-19T12:23:25.124Z,99.00
2022-11-19T12:26:15.134Z,98.90
2022-11-19T12:29:07.882Z,99.00
2022-11-19T12:32:03.795Z,99.00
2022-11-19T12:34:58.686Z,99.00
2022-11-19T12:37:39.582Z,98.90
2022-11-19T12:40:38.920Z,98.80
2022-11-19T12:43:17.265Z,98.80
2022-11-19T12:46:22.780Z,99.00
2022-11-19T12:49:17.572Z,99.20
2022-11-19T12:51:48.592Z,99.40
2022-11-19T12:54:39.868Z,99.40
2022-11-19T12:57:33.764Z,99.20
2022-11-19T13:00:07.798Z,99.40
2022-11-19T13:02:58.115Z,99.30
2022-11-19T13:05:37.598Z,99.30
2022-11-19T13:08:23.424Z,99.00
2022-11-19T13:11:09.292Z,99.10
2022-11-19T13:13:44.660Z,98.90
2022-11-19T13:16:19.023Z,99.00
2022-11-19T13:18:57.232Z,99.10
2022-11-19T13:21:31.292Z,99.20
2022-11-19T13:24:35.889Z,99.40
2022-11-19T13:27:17.696Z,99.40
2022-11-19T13:30:06.215Z,99.50
2022-11-19T13:33:04.194Z,99.30
2022-11-19T13:36:18.892Z,99.20
2022-11-19T13:39:07.505Z,99.20
2022-11-19T13:42:20.380Z,98.80
2022-11-19T13:44:51.304Z,99.10
2022-11-19T13:47:51.930Z,99.20
2022-11-19T13:50:46.248Z,99.30
2022-11-19T13:53:29.753Z,99.40
2022-11-19T13:56:01.013Z,99.60
2022-11-19T13:58:42.720Z,99.70
2022-11-19T14:01:41.091Z,99.50
2022-11-19T14:04:39.527Z,99.60
2022-11-19T14:07:32.997Z,99.60
2022-11-19T14:10:39.686Z,99.50
2022-11-19T14:13:25.365Z,99.60
2022-11-19T14:16:23.419Z,99.50
2022-11-19T14:19:19.079Z,99.50
2022-11-19T14:22:10.167Z,99.30
2022-11-19T14:24:58.900Z,99.40
2022-11-19T14:27:34.623Z,99.40
2022-11-19T14:30:43.836Z,99.10
2022-11-19T14:34:03.286Z,99.10
2022-11-19T14:36:50.061Z,99.30
2022-11-19T14:39:32.564Z,99.70
2022-11-19T14:42:22.517Z,99.80
2022-11-19T14:45:05.738Z,99.90
2022-11-19T14:47:47.638Z,99.90
2022-11-19T14:50:32.239Z,99.90
2022-11-19T14:53:04.686Z,99.90
2022-11-19T14:55:37.664Z,99.90
2022-11-19T14:58:20.850Z,99.90
2022-11-19T15:00:52.958Z,99.90
2022-11-19T15:03:31.464Z,99.90
2022-11-19T15:06:09.000Z,99.90
2022-11-19T15:08:59.690Z,99.90
2022-11-19T15:11:59.216Z,99.90
2022-11-19T15:14:36.885Z,99.90
2022-11-19T15:17:12.334Z,99.90
2022-11-19T15:19:51.396Z,99.90
2022-11-19T15:22:55.813Z,99.90
2022-11-19T15:26:01.529Z,99.90
2022-11-19T15:28:41.194Z,99.90
2022-11-19T15:31:15.256Z,99.90
2022-11-19T15:33:57.865Z,99.90
2022-11-19T15:36:35.417Z,99.90
2022-11-19T15:39:13.348Z,99.90
2022-11-19T15:42:09.461Z,99.90
2022-11-19T15:44:42.488Z,99.90
2022-11-19T15:47:40.014Z,99.90
2022-11-19T15:50:21.582Z,99.90
2022-11-19T15:53:19.496Z,99.90
2022-11-19T15:56:07.517Z,99.90
2022-11-19T15:58:49.359Z,99.90
2022-11-19T16:01:25.548Z,99.90
2022-11-19T16:03:57.337Z,99.90
2022-11-19T16:06:33.266Z,99.90
2022-11-19T16:09:08.828Z,99.90
2022-11-19T16:11:59.688Z,99.90
2022-11-19T16:14:50.575Z,99.90
2022-11-19T16:17:43.822Z,99.90
2022-11-19T16:20:15.326Z,99.90
2022-11-19T16:22:49.818Z,99.90
2022-11-19T16:25:28.666Z,99.90
2022-11-19T16:28:03.666Z,99.90
2022-11-19T16:30:46.708Z,99.90
2022-11-19T16:33:21.532Z,99.90
2022-11-19T16:35:54.137Z,99.90
2022-11-19T16:38:32.434Z,99.90
2022-11-19T16:41:22.628Z,99.90
2022-11-19T16:43:53.804Z,99.90
2022-11-19T16:46:28.494Z,99.90
2022-11-19T16:49:02.911Z,99.90
2022-11-19T16:51:57.657Z,99.90
2022-11-19T16:54:53.208Z,99.90
2022-11-19T16:57:25.973Z,99.90
2022-11-19T17:00:02.339Z,99.90
2022-11-19T17:02:40.283Z,99.90
2022-11-19T17:05:14.107Z,99.90
2022-11-19T17:07:49.141Z,99.90
2022-11-19T17:10:23.055Z,99.90
2022-11-19T17:13:25.005Z,99.90
2022-11-19T17:15:55.266Z,99.90
2022-11-19T17:18:30.903Z,99.90
2022-11-19T17:21:24.101Z,99.90
2022-11-19T17:23:56.877Z,99.90
2022-11-19T17:26:32.003Z,99.90
2022-11-19T17:29:25.565Z,99.90
2022-11-19T17:32:00.864Z,99.90
2022-11-19T17:34:38.275Z,99.90
2022-11-19T17:37:11.794Z,99.90
2022-11-19T17:39:42.538Z,99.90
2022-11-19T17:42:30.901Z,99.90
2022-11-19T17:45:10.304Z,99.90
2022-11-19T17:47:43.051Z,99.90
2022-11-19T17:50:14.747Z,99.90
2022-11-19T17:52:46.449Z,99.90
2022-11-19T17:55:22.726Z,99.90
2022-11-19T17:57:53.621Z,99.90
2022-11-19T18:00:24.537Z,99.90
2022-11-19T18:03:01.740Z,99.90
2022-11-19T18:05:38.791Z,99.90
2022-11-19T18:08:09.418Z,99.90
2022-11-19T18:10:40.022Z,99.90
2022-11-19T18:13:12.058Z,99.90
2022-11-19T18:15:44.009Z,99.90
2022-11-19T18:18:14.693Z,99.90
2022-11-19T18:20:45.590Z,99.90
2022-11-19T18:23:17.304Z,99.90
2022-11-19T18:25:48.046Z,99.90
2022-11-19T18:28:19.128Z,99.90
2022-11-19T18:30:51.087Z,99.90
2022-11-19T18:33:23.780Z,99.90
2022-11-19T18:35:55.638Z,99.90
2022-11-19T18:38:26.355Z,99.90
2022-11-19T18:40:57.304Z,99.60
2022-11-19T18:43:47.816Z,99.30
2022-11-19T18:46:18.692Z,99.40
2022-11-19T18:48:50.394Z,99.00
2022-11-19T18:51:21.078Z,98.60
2022-11-19T18:53:52.029Z,99.00
2022-11-19T18:56:25.076Z,99.00
2022-11-19T18:58:58.127Z,98.70
2022-11-19T19:01:32.823Z,98.50
2022-11-19T19:04:03.731Z,97.90
2022-11-19T19:06:35.842Z,97.80
2022-11-19T19:09:06.694Z,97.50
2022-11-19T19:11:57.181Z,97.50
2022-11-19T19:14:28.012Z,97.30
2022-11-19T19:16:58.925Z,97.40
2022-11-19T19:19:29.659Z,97.10
2022-11-19T19:22:01.535Z,97.60
2022-11-19T19:24:34.577Z,97.40
2022-11-19T19:27:05.538Z,97.40
2022-11-19T19:29:36.189Z,97.60
2022-11-19T19:32:07.410Z,97.90
2022-11-19T19:34:38.584Z,97.90
2022-11-19T19:37:09.413Z,97.60
2022-11-19T19:39:40.125Z,97.90
2022-11-19T19:42:11.998Z,97.80
2022-11-19T19:44:42.691Z,97.80
2022-11-19T19:47:14.338Z,96.70
2022-11-19T19:49:44.973Z,97.10
2022-11-19T19:52:15.817Z,97.20
2022-11-19T19:54:46.556Z,96.30
2022-11-19T19:57:18.600Z,95.60
2022-11-19T19:59:49.155Z,96.20
2022-11-19T20:02:19.838Z,95.40
2022-11-19T20:04:52.633Z,95.90
2022-11-19T20:07:23.452Z,95.70
2022-11-19T20:09:54.181Z,96.20
2022-11-19T20:12:25.032Z,95.90
2022-11-19T20:14:55.700Z,95.50
2022-11-19T20:17:26.427Z,95.40
2022-11-19T20:19:57.022Z,96.10
2022-11-19T20:22:28.384Z,96.20
2022-11-19T20:25:01.240Z,95.60
2022-11-19T20:27:34.020Z,94.80
2022-11-19T20:30:05.879Z,95.20
2022-11-19T20:32:37.929Z,95.10
2022-11-19T20:35:08.750Z,95.40
2022-11-19T20:37:40.372Z,95.60
2022-11-19T20:40:12.842Z,95.10
2022-11-19T20:43:02.682Z,94.70
2022-11-19T20:45:33.566Z,93.80
2022-11-19T20:48:06.294Z,93.90
2022-11-19T20:50:36.911Z,93.70
2022-11-19T20:53:09.896Z,93.30
2022-11-19T20:56:03.802Z,93.70
2022-11-19T20:58:32.345Z,94.60
2022-11-19T21:01:04.598Z,94.70
2022-11-19T21:03:36.617Z,94.70
2022-11-19T21:06:10.876Z,94.80
2022-11-19T21:08:41.764Z,94.60
2022-11-19T21:11:14.666Z,94.50
2022-11-19T21:13:48.643Z,93.80
2022-11-19T21:16:23.103Z,93.30
2022-11-19T21:18:54.746Z,93.50
2022-11-19T21:21:27.420Z,93.70
2022-11-19T21:23:58.461Z,93.40
2022-11-19T21:26:30.659Z,94.50
2022-11-19T21:29:02.472Z,94.70
2022-11-19T21:31:43.551Z,94.90
2022-11-19T21:34:16.792Z,95.30
2022-11-19T21:36:51.183Z,95.20
2022-11-19T21:39:24.736Z,95.40
2022-11-19T21:41:56.752Z,94.90
2022-11-19T21:44:27.513Z,94.60
2022-11-19T21:46:59.139Z,94.80
2022-11-19T21:49:29.834Z,95.50
2022-11-19T21:52:00.790Z,95.70
2022-11-19T21:54:31.492Z,95.30
2022-11-19T21:57:02.398Z,94.70
2022-11-19T21:59:33.316Z,94.70
2022-11-19T22:02:03.895Z,92.80
2022-11-19T22:04:34.609Z,92.60
2022-11-19T22:07:06.094Z,90.80
2022-11-19T22:09:37.141Z,89.90
2022-11-19T22:12:09.623Z,88.80
2022-11-19T22:14:40.742Z,86.40
2022-11-19T22:17:11.376Z,84.60
2022-11-19T22:19:42.074Z,82.50
2022-11-19T22:22:12.905Z,82.40
2022-11-19T22:24:43.557Z,82.40
2022-11-19T22:27:14.252Z,83.40
2022-11-19T22:29:47.133Z,82.80
2022-11-19T22:32:17.901Z,80.50
2022-11-19T22:34:49.131Z,80.50
2022-11-19T22:37:21.320Z,81.70
2022-11-19T22:39:51.962Z,82.30
2022-11-19T22:42:23.307Z,82.10
2022-11-19T22:44:55.605Z,82.70
2022-11-19T22:47:27.200Z,83.80
2022-11-19T22:49:58.005Z,84.20
2022-11-19T22:52:28.676Z,83.70
2022-11-19T22:54:59.510Z,84.40
2022-11-19T22:57:30.735Z,83.20
2022-11-19T23:00:03.382Z,83.90
2022-11-19T23:02:34.008Z,85.20
2022-11-19T23:05:05.786Z,84.50
2022-11-19T23:07:37.404Z,83.00
2022-11-19T23:10:09.863Z,82.30
2022-11-19T23:12:58.355Z,80.90
2022-11-19T23:15:30.319Z,80.00
2022-11-19T23:18:02.104Z,80.00
2022-11-19T23:20:34.479Z,78.90
2022-11-19T23:23:05.774Z,82.10
2022-11-19T23:25:37.850Z,80.00
2022-11-19T23:28:10.447Z,80.70
2022-11-19T23:30:41.308Z,81.20
2022-11-19T23:33:12.862Z,83.40
2022-11-19T23:35:43.790Z,82.40
2022-11-19T23:38:15.992Z,83.40
2022-11-19T23:40:47.849Z,80.10
2022-11-19T23:43:18.468Z,80.50
2022-11-19T23:45:50.679Z,79.10
2022-11-19T23:48:21.791Z,80.40
2022-11-19T23:50:52.594Z,78.40
2022-11-19T23:53:23.255Z,77.90
2022-11-19T23:55:54.093Z,79.10
2022-11-19T23:58:25.133Z,78.10
